sensor_id;sensor_type;location;lat;lon;timestamp;P1;durP1;ratioP1;P2;durP2;ratioP2
14052;SDS011;7101;51.600;7.310;2023-03-01T00:01:09;8.43;;;5.72;;
14052;SDS011;7101;51.600;7.310;2023-03-01T00:03:38;11.27;;;6.43;;
14052;SDS011;7101;51.600;7.310;2023-03-01T00:06:05;9.07;;;5.75;;
14052;SDS011;7101;51.600;7.310;2023-03-01T00:08:34;9.60;;;6.28;;
14052;SDS011;7101;51.600;7.310;2023-03-01T00:11:03;9.65;;;6.22;;
14052;SDS011;7101;51.600;7.310;2023-03-01T00:13:32;8.83;;;6.27;;
14052;SDS011;7101;51.600;7.310;2023-03-01T00:16:01;8.45;;;6.15;;
14052;SDS011;7101;51.600;7.310;2023-03-01T00:18:28;9.32;;;6.80;;
14052;SDS011;7101;51.600;7.310;2023-03-01T00:20:55;9.57;;;6.70;;
14052;SDS011;7101;51.600;7.310;2023-03-01T00:23:22;8.93;;;6.50;;
14052;SDS011;7101;51.600;7.310;2023-03-01T00:25:50;8.50;;;6.28;;
14052;SDS011;7101;51.600;7.310;2023-03-01T00:28:19;9.48;;;6.32;;
14052;SDS011;7101;51.600;7.310;2023-03-01T00:30:47;9.35;;;6.57;;
14052;SDS011;7101;51.600;7.310;2023-03-01T00:33:14;7.55;;;6.25;;
14052;SDS011;7101;51.600;7.310;2023-03-01T00:35:41;9.07;;;6.18;;
14052;SDS011;7101;51.600;7.310;2023-03-01T00:38:08;9.05;;;6.28;;
14052;SDS011;7101;51.600;7.310;2023-03-01T00:40:35;11.52;;;7.32;;
14052;SDS011;7101;51.600;7.310;2023-03-01T00:43:03;9.63;;;6.68;;
14052;SDS011;7101;51.600;7.310;2023-03-01T00:45:32;10.88;;;7.00;;
14052;SDS011;7101;51.600;7.310;2023-03-01T00:48:00;8.50;;;6.35;;
14052;SDS011;7101;51.600;7.310;2023-03-01T00:50:27;8.55;;;6.15;;
14052;SDS011;7101;51.600;7.310;2023-03-01T00:52:54;12.23;;;6.83;;
14052;SDS011;7101;51.600;7.310;2023-03-01T00:55:22;9.00;;;6.28;;
14052;SDS011;7101;51.600;7.310;2023-03-01T00:57:50;9.68;;;6.20;;
14052;SDS011;7101;51.600;7.310;2023-03-01T01:00:18;8.47;;;6.17;;
14052;SDS011;7101;51.600;7.310;2023-03-01T01:02:48;8.93;;;6.33;;
14052;SDS011;7101;51.600;7.310;2023-03-01T01:05:15;9.50;;;6.90;;
14052;SDS011;7101;51.600;7.310;2023-03-01T01:07:46;9.90;;;6.30;;
14052;SDS011;7101;51.600;7.310;2023-03-01T01:10:13;8.23;;;6.60;;
14052;SDS011;7101;51.600;7.310;2023-03-01T01:12:43;8.85;;;6.38;;
14052;SDS011;7101;51.600;7.310;2023-03-01T01:15:11;9.70;;;6.47;;
14052;SDS011;7101;51.600;7.310;2023-03-01T01:17:39;10.20;;;7.00;;
14052;SDS011;7101;51.600;7.310;2023-03-01T01:20:08;8.43;;;5.82;;
14052;SDS011;7101;51.600;7.310;2023-03-01T01:22:36;7.15;;;6.20;;
14052;SDS011;7101;51.600;7.310;2023-03-01T01:25:03;11.37;;;6.90;;
14052;SDS011;7101;51.600;7.310;2023-03-01T01:27:30;10.87;;;6.80;;
14052;SDS011;7101;51.600;7.310;2023-03-01T01:29:57;9.15;;;6.80;;
14052;SDS011;7101;51.600;7.310;2023-03-01T01:32:24;11.20;;;7.13;;
14052;SDS011;7101;51.600;7.310;2023-03-01T01:34:51;10.03;;;7.03;;
14052;SDS011;7101;51.600;7.310;2023-03-01T01:37:19;10.17;;;7.03;;
14052;SDS011;7101;51.600;7.310;2023-03-01T01:39:46;9.47;;;6.63;;
14052;SDS011;7101;51.600;7.310;2023-03-01T01:42:14;10.10;;;7.53;;
14052;SDS011;7101;51.600;7.310;2023-03-01T01:44:42;10.63;;;7.13;;
14052;SDS011;7101;51.600;7.310;2023-03-01T01:47:13;8.63;;;6.57;;
14052;SDS011;7101;51.600;7.310;2023-03-01T01:49:44;10.33;;;7.10;;
14052;SDS011;7101;51.600;7.310;2023-03-01T01:52:16;9.97;;;6.80;;
14052;SDS011;7101;51.600;7.310;2023-03-01T01:54:47;12.80;;;7.20;;
14052;SDS011;7101;51.600;7.310;2023-03-01T01:57:21;10.53;;;7.20;;
14052;SDS011;7101;51.600;7.310;2023-03-01T01:59:52;11.73;;;7.47;;
14052;SDS011;7101;51.600;7.310;2023-03-01T02:02:21;10.67;;;7.37;;
14052;SDS011;7101;51.600;7.310;2023-03-01T02:04:49;11.50;;;7.13;;
14052;SDS011;7101;51.600;7.310;2023-03-01T02:07:22;13.40;;;8.10;;
14052;SDS011;7101;51.600;7.310;2023-03-01T02:09:50;11.30;;;7.20;;
14052;SDS011;7101;51.600;7.310;2023-03-01T02:12:20;9.00;;;6.70;;
14052;SDS011;7101;51.600;7.310;2023-03-01T02:14:49;10.60;;;6.85;;
14052;SDS011;7101;51.600;7.310;2023-03-01T02:17:16;9.35;;;7.15;;
14052;SDS011;7101;51.600;7.310;2023-03-01T02:19:48;9.67;;;6.40;;
14052;SDS011;7101;51.600;7.310;2023-03-01T02:22:27;10.47;;;7.37;;
14052;SDS011;7101;51.600;7.310;2023-03-01T02:25:00;10.77;;;7.60;;
14052;SDS011;7101;51.600;7.310;2023-03-01T02:27:46;10.37;;;7.07;;
14052;SDS011;7101;51.600;7.310;2023-03-01T02:30:21;10.10;;;7.27;;
14052;SDS011;7101;51.600;7.310;2023-03-01T02:32:50;9.13;;;7.20;;
14052;SDS011;7101;51.600;7.310;2023-03-01T02:35:19;9.87;;;6.80;;
14052;SDS011;7101;51.600;7.310;2023-03-01T02:37:47;10.73;;;7.37;;
14052;SDS011;7101;51.600;7.310;2023-03-01T02:40:15;11.00;;;7.20;;
14052;SDS011;7101;51.600;7.310;2023-03-01T02:42:47;9.23;;;7.10;;
14052;SDS011;7101;51.600;7.310;2023-03-01T02:45:18;10.03;;;7.40;;
14052;SDS011;7101;51.600;7.310;2023-03-01T02:47:46;10.03;;;7.07;;
14052;SDS011;7101;51.600;7.310;2023-03-01T02:52:57;9.90;;;7.00;;
14052;SDS011;7101;51.600;7.310;2023-03-01T02:55:32;9.03;;;6.83;;
14052;SDS011;7101;51.600;7.310;2023-03-01T02:57:59;9.70;;;7.40;;
14052;SDS011;7101;51.600;7.310;2023-03-01T03:00:30;10.17;;;7.30;;
14052;SDS011;7101;51.600;7.310;2023-03-01T03:03:06;10.90;;;7.47;;
14052;SDS011;7101;51.600;7.310;2023-03-01T03:05:34;11.10;;;7.53;;
14052;SDS011;7101;51.600;7.310;2023-03-01T03:08:02;8.88;;;7.43;;
14052;SDS011;7101;51.600;7.310;2023-03-01T03:10:31;9.73;;;6.87;;
14052;SDS011;7101;51.600;7.310;2023-03-01T03:12:58;12.63;;;7.03;;
14052;SDS011;7101;51.600;7.310;2023-03-01T03:15:27;11.03;;;7.67;;
14052;SDS011;7101;51.600;7.310;2023-03-01T03:17:54;11.10;;;7.83;;
14052;SDS011;7101;51.600;7.310;2023-03-01T03:20:22;11.50;;;7.13;;
14052;SDS011;7101;51.600;7.310;2023-03-01T03:22:52;13.10;;;8.30;;
14052;SDS011;7101;51.600;7.310;2023-03-01T03:25:20;10.07;;;7.67;;
14052;SDS011;7101;51.600;7.310;2023-03-01T03:27:48;11.33;;;8.50;;
14052;SDS011;7101;51.600;7.310;2023-03-01T03:30:24;9.53;;;7.60;;
14052;SDS011;7101;51.600;7.310;2023-03-01T03:32:52;11.03;;;7.50;;
14052;SDS011;7101;51.600;7.310;2023-03-01T03:35:20;14.33;;;8.00;;
14052;SDS011;7101;51.600;7.310;2023-03-01T03:37:49;12.40;;;7.80;;
14052;SDS011;7101;51.600;7.310;2023-03-01T03:40:29;14.43;;;8.40;;
14052;SDS011;7101;51.600;7.310;2023-03-01T03:42:58;11.23;;;8.10;;
14052;SDS011;7101;51.600;7.310;2023-03-01T03:45:27;10.73;;;7.67;;
14052;SDS011;7101;51.600;7.310;2023-03-01T03:47:54;11.17;;;8.20;;
14052;SDS011;7101;51.600;7.310;2023-03-01T03:50:21;10.60;;;7.83;;
14052;SDS011;7101;51.600;7.310;2023-03-01T03:52:48;11.43;;;7.83;;
14052;SDS011;7101;51.600;7.310;2023-03-01T03:55:15;11.00;;;7.73;;
14052;SDS011;7101;51.600;7.310;2023-03-01T03:57:45;12.13;;;7.78;;
14052;SDS011;7101;51.600;7.310;2023-03-01T04:00:17;10.23;;;7.67;;
14052;SDS011;7101;51.600;7.310;2023-03-01T04:02:50;10.80;;;7.37;;
14052;SDS011;7101;51.600;7.310;2023-03-01T04:05:21;12.90;;;7.27;;
14052;SDS011;7101;51.600;7.310;2023-03-01T04:07:51;11.63;;;7.90;;
14052;SDS011;7101;51.600;7.310;2023-03-01T04:10:26;11.13;;;7.70;;
14052;SDS011;7101;51.600;7.310;2023-03-01T04:12:53;9.80;;;7.93;;
14052;SDS011;7101;51.600;7.310;2023-03-01T04:15:22;13.13;;;7.30;;
14052;SDS011;7101;51.600;7.310;2023-03-01T04:17:52;10.60;;;7.30;;
14052;SDS011;7101;51.600;7.310;2023-03-01T04:20:21;13.03;;;7.83;;
14052;SDS011;7101;51.600;7.310;2023-03-01T04:22:50;11.23;;;8.00;;
14052;SDS011;7101;51.600;7.310;2023-03-01T04:25:18;10.37;;;7.93;;
14052;SDS011;7101;51.600;7.310;2023-03-01T04:27:45;11.00;;;8.10;;
14052;SDS011;7101;51.600;7.310;2023-03-01T04:30:12;15.40;;;8.83;;
14052;SDS011;7101;51.600;7.310;2023-03-01T04:32:39;11.70;;;8.70;;
14052;SDS011;7101;51.600;7.310;2023-03-01T04:35:08;11.90;;;8.20;;
14052;SDS011;7101;51.600;7.310;2023-03-01T04:37:35;11.03;;;7.93;;
14052;SDS011;7101;51.600;7.310;2023-03-01T04:40:02;11.77;;;8.13;;
14052;SDS011;7101;51.600;7.310;2023-03-01T04:42:38;13.87;;;8.43;;
14052;SDS011;7101;51.600;7.310;2023-03-01T04:45:05;12.60;;;8.50;;
14052;SDS011;7101;51.600;7.310;2023-03-01T04:47:38;12.93;;;8.67;;
14052;SDS011;7101;51.600;7.310;2023-03-01T04:50:08;11.57;;;8.47;;
14052;SDS011;7101;51.600;7.310;2023-03-01T04:52:36;12.93;;;8.67;;
14052;SDS011;7101;51.600;7.310;2023-03-01T04:55:03;12.17;;;8.50;;
14052;SDS011;7101;51.600;7.310;2023-03-01T04:57:32;13.63;;;8.63;;
14052;SDS011;7101;51.600;7.310;2023-03-01T04:59:59;17.90;;;8.40;;
14052;SDS011;7101;51.600;7.310;2023-03-01T05:02:26;15.77;;;8.40;;
14052;SDS011;7101;51.600;7.310;2023-03-01T05:04:53;12.60;;;8.03;;
14052;SDS011;7101;51.600;7.310;2023-03-01T05:07:23;11.10;;;8.10;;
14052;SDS011;7101;51.600;7.310;2023-03-01T05:09:51;13.17;;;8.23;;
14052;SDS011;7101;51.600;7.310;2023-03-01T05:12:19;14.80;;;8.33;;
14052;SDS011;7101;51.600;7.310;2023-03-01T05:14:46;17.13;;;8.53;;
14052;SDS011;7101;51.600;7.310;2023-03-01T05:17:13;13.57;;;7.83;;
14052;SDS011;7101;51.600;7.310;2023-03-01T05:19:39;13.40;;;8.50;;
14052;SDS011;7101;51.600;7.310;2023-03-01T05:22:07;11.10;;;8.10;;
14052;SDS011;7101;51.600;7.310;2023-03-01T05:24:36;11.50;;;7.97;;
14052;SDS011;7101;51.600;7.310;2023-03-01T05:27:04;12.50;;;8.33;;
14052;SDS011;7101;51.600;7.310;2023-03-01T05:29:31;15.47;;;8.50;;
14052;SDS011;7101;51.600;7.310;2023-03-01T05:32:00;13.23;;;8.57;;
14052;SDS011;7101;51.600;7.310;2023-03-01T05:34:29;12.40;;;8.47;;
14052;SDS011;7101;51.600;7.310;2023-03-01T05:36:58;13.07;;;8.20;;
14052;SDS011;7101;51.600;7.310;2023-03-01T05:39:25;13.60;;;8.97;;
14052;SDS011;7101;51.600;7.310;2023-03-01T05:41:55;12.43;;;8.60;;
14052;SDS011;7101;51.600;7.310;2023-03-01T05:44:23;12.60;;;8.77;;
14052;SDS011;7101;51.600;7.310;2023-03-01T05:46:51;13.97;;;8.80;;
14052;SDS011;7101;51.600;7.310;2023-03-01T05:49:18;11.35;;;8.68;;
14052;SDS011;7101;51.600;7.310;2023-03-01T05:51:47;12.20;;;9.27;;
14052;SDS011;7101;51.600;7.310;2023-03-01T05:54:16;17.17;;;8.63;;
14052;SDS011;7101;51.600;7.310;2023-03-01T05:56:43;12.77;;;8.87;;
14052;SDS011;7101;51.600;7.310;2023-03-01T05:59:12;14.73;;;8.83;;
14052;SDS011;7101;51.600;7.310;2023-03-01T06:01:41;12.77;;;8.83;;
14052;SDS011;7101;51.600;7.310;2023-03-01T06:04:08;13.80;;;9.27;;
14052;SDS011;7101;51.600;7.310;2023-03-01T06:06:36;13.10;;;8.87;;
14052;SDS011;7101;51.600;7.310;2023-03-01T06:09:04;11.97;;;8.87;;
14052;SDS011;7101;51.600;7.310;2023-03-01T06:11:33;11.90;;;8.70;;
14052;SDS011;7101;51.600;7.310;2023-03-01T06:14:00;13.10;;;9.27;;
14052;SDS011;7101;51.600;7.310;2023-03-01T06:16:28;12.57;;;9.17;;
14052;SDS011;7101;51.600;7.310;2023-03-01T06:18:55;12.33;;;9.27;;
14052;SDS011;7101;51.600;7.310;2023-03-01T06:21:22;12.83;;;9.50;;
14052;SDS011;7101;51.600;7.310;2023-03-01T06:23:48;14.53;;;9.20;;
14052;SDS011;7101;51.600;7.310;2023-03-01T06:26:16;13.13;;;9.53;;
14052;SDS011;7101;51.600;7.310;2023-03-01T06:28:43;13.27;;;9.47;;
14052;SDS011;7101;51.600;7.310;2023-03-01T06:31:11;15.63;;;9.20;;
14052;SDS011;7101;51.600;7.310;2023-03-01T06:33:40;15.73;;;9.97;;
14052;SDS011;7101;51.600;7.310;2023-03-01T06:36:07;13.40;;;9.43;;
14052;SDS011;7101;51.600;7.310;2023-03-01T06:38:35;13.23;;;9.33;;
14052;SDS011;7101;51.600;7.310;2023-03-01T06:43:31;12.67;;;9.47;;
14052;SDS011;7101;51.600;7.310;2023-03-01T06:45:58;12.97;;;9.57;;
14052;SDS011;7101;51.600;7.310;2023-03-01T06:48:25;12.77;;;9.30;;
14052;SDS011;7101;51.600;7.310;2023-03-01T06:50:54;12.00;;;8.77;;
14052;SDS011;7101;51.600;7.310;2023-03-01T06:53:24;15.07;;;9.10;;
14052;SDS011;7101;51.600;7.310;2023-03-01T06:55:53;12.73;;;8.63;;
14052;SDS011;7101;51.600;7.310;2023-03-01T06:58:20;11.43;;;8.63;;
14052;SDS011;7101;51.600;7.310;2023-03-01T07:00:47;13.60;;;9.23;;
14052;SDS011;7101;51.600;7.310;2023-03-01T07:03:14;12.70;;;8.83;;
14052;SDS011;7101;51.600;7.310;2023-03-01T07:05:41;12.70;;;9.07;;
14052;SDS011;7101;51.600;7.310;2023-03-01T07:08:11;19.23;;;9.93;;
14052;SDS011;7101;51.600;7.310;2023-03-01T07:10:38;14.90;;;10.20;;
14052;SDS011;7101;51.600;7.310;2023-03-01T07:13:05;14.60;;;10.20;;
14052;SDS011;7101;51.600;7.310;2023-03-01T07:15:33;15.30;;;10.20;;
14052;SDS011;7101;51.600;7.310;2023-03-01T07:18:01;12.20;;;9.15;;
14052;SDS011;7101;51.600;7.310;2023-03-01T07:20:29;13.40;;;8.70;;
14052;SDS011;7101;51.600;7.310;2023-03-01T07:22:56;12.88;;;9.10;;
14052;SDS011;7101;51.600;7.310;2023-03-01T07:25:27;13.18;;;9.27;;
14052;SDS011;7101;51.600;7.310;2023-03-01T07:27:54;13.35;;;9.45;;
14052;SDS011;7101;51.600;7.310;2023-03-01T07:30:22;12.60;;;9.32;;
14052;SDS011;7101;51.600;7.310;2023-03-01T07:32:53;15.18;;;9.45;;
14052;SDS011;7101;51.600;7.310;2023-03-01T07:35:23;14.57;;;8.60;;
14052;SDS011;7101;51.600;7.310;2023-03-01T07:37:58;17.05;;;8.73;;
14052;SDS011;7101;51.600;7.310;2023-03-01T07:40:28;20.50;;;8.75;;
14052;SDS011;7101;51.600;7.310;2023-03-01T07:42:56;15.40;;;8.90;;
14052;SDS011;7101;51.600;7.310;2023-03-01T07:45:26;15.88;;;9.48;;
14052;SDS011;7101;51.600;7.310;2023-03-01T07:47:54;15.65;;;9.25;;
14052;SDS011;7101;51.600;7.310;2023-03-01T07:50:22;19.90;;;9.52;;
14052;SDS011;7101;51.600;7.310;2023-03-01T07:52:49;17.20;;;10.35;;
14052;SDS011;7101;51.600;7.310;2023-03-01T07:55:17;18.80;;;10.50;;
14052;SDS011;7101;51.600;7.310;2023-03-01T07:57:47;17.13;;;9.68;;
14052;SDS011;7101;51.600;7.310;2023-03-01T08:00:14;21.00;;;9.93;;
14052;SDS011;7101;51.600;7.310;2023-03-01T08:02:41;17.25;;;9.60;;
14052;SDS011;7101;51.600;7.310;2023-03-01T08:05:10;16.35;;;10.30;;
14052;SDS011;7101;51.600;7.310;2023-03-01T08:07:37;16.67;;;10.75;;
14052;SDS011;7101;51.600;7.310;2023-03-01T08:10:05;14.38;;;10.23;;
14052;SDS011;7101;51.600;7.310;2023-03-01T08:12:33;14.80;;;10.05;;
14052;SDS011;7101;51.600;7.310;2023-03-01T08:15:02;14.32;;;10.40;;
14052;SDS011;7101;51.600;7.310;2023-03-01T08:17:31;18.05;;;11.85;;
14052;SDS011;7101;51.600;7.310;2023-03-01T08:19:57;18.73;;;13.68;;
14052;SDS011;7101;51.600;7.310;2023-03-01T08:22:25;18.17;;;12.63;;
14052;SDS011;7101;51.600;7.310;2023-03-01T08:24:52;22.20;;;14.15;;
14052;SDS011;7101;51.600;7.310;2023-03-01T08:27:20;19.10;;;11.73;;
14052;SDS011;7101;51.600;7.310;2023-03-01T08:29:53;18.92;;;11.73;;
14052;SDS011;7101;51.600;7.310;2023-03-01T08:32:23;19.13;;;11.90;;
14052;SDS011;7101;51.600;7.310;2023-03-01T08:35:01;18.80;;;12.48;;
14052;SDS011;7101;51.600;7.310;2023-03-01T08:37:28;14.10;;;9.52;;
14052;SDS011;7101;51.600;7.310;2023-03-01T08:40:01;13.90;;;10.37;;
14052;SDS011;7101;51.600;7.310;2023-03-01T08:42:40;18.50;;;11.88;;
14052;SDS011;7101;51.600;7.310;2023-03-01T08:45:09;17.08;;;12.02;;
14052;SDS011;7101;51.600;7.310;2023-03-01T08:47:38;18.27;;;11.95;;
14052;SDS011;7101;51.600;7.310;2023-03-01T08:50:06;15.93;;;10.32;;
14052;SDS011;7101;51.600;7.310;2023-03-01T08:52:34;15.70;;;9.38;;
14052;SDS011;7101;51.600;7.310;2023-03-01T08:55:02;13.40;;;8.52;;
14052;SDS011;7101;51.600;7.310;2023-03-01T08:57:29;13.85;;;8.95;;
14052;SDS011;7101;51.600;7.310;2023-03-01T08:59:56;15.65;;;8.60;;
14052;SDS011;7101;51.600;7.310;2023-03-01T09:02:24;14.45;;;8.18;;
14052;SDS011;7101;51.600;7.310;2023-03-01T09:04:53;11.40;;;7.90;;
14052;SDS011;7101;51.600;7.310;2023-03-01T09:07:20;11.60;;;7.90;;
14052;SDS011;7101;51.600;7.310;2023-03-01T09:09:53;10.52;;;7.88;;
14052;SDS011;7101;51.600;7.310;2023-03-01T09:12:20;12.65;;;7.20;;
14052;SDS011;7101;51.600;7.310;2023-03-01T09:14:47;13.65;;;7.15;;
14052;SDS011;7101;51.600;7.310;2023-03-01T09:17:14;12.73;;;7.60;;
14052;SDS011;7101;51.600;7.310;2023-03-01T09:19:43;9.05;;;7.30;;
14052;SDS011;7101;51.600;7.310;2023-03-01T09:22:11;12.52;;;7.20;;
14052;SDS011;7101;51.600;7.310;2023-03-01T09:24:46;12.43;;;7.90;;
14052;SDS011;7101;51.600;7.310;2023-03-01T09:27:13;11.95;;;7.78;;
14052;SDS011;7101;51.600;7.310;2023-03-01T09:29:43;11.02;;;7.40;;
14052;SDS011;7101;51.600;7.310;2023-03-01T09:32:10;10.43;;;6.90;;
14052;SDS011;7101;51.600;7.310;2023-03-01T09:34:37;10.25;;;7.50;;
14052;SDS011;7101;51.600;7.310;2023-03-01T09:37:22;13.02;;;7.57;;
14052;SDS011;7101;51.600;7.310;2023-03-01T09:39:50;10.73;;;7.28;;
14052;SDS011;7101;51.600;7.310;2023-03-01T09:42:17;10.63;;;7.20;;
14052;SDS011;7101;51.600;7.310;2023-03-01T09:44:46;12.75;;;7.38;;
14052;SDS011;7101;51.600;7.310;2023-03-01T09:47:18;15.13;;;7.03;;
14052;SDS011;7101;51.600;7.310;2023-03-01T09:49:49;12.38;;;7.43;;
14052;SDS011;7101;51.600;7.310;2023-03-01T09:52:25;14.52;;;7.88;;
14052;SDS011;7101;51.600;7.310;2023-03-01T09:54:59;12.68;;;7.95;;
14052;SDS011;7101;51.600;7.310;2023-03-01T09:57:28;11.88;;;7.22;;
14052;SDS011;7101;51.600;7.310;2023-03-01T10:00:12;13.65;;;7.88;;
14052;SDS011;7101;51.600;7.310;2023-03-01T10:02:51;12.27;;;8.07;;
14052;SDS011;7101;51.600;7.310;2023-03-01T10:05:34;11.18;;;7.07;;
14052;SDS011;7101;51.600;7.310;2023-03-01T10:10:56;10.65;;;7.13;;
14052;SDS011;7101;51.600;7.310;2023-03-01T10:13:25;12.30;;;7.90;;
14052;SDS011;7101;51.600;7.310;2023-03-01T10:16:00;12.52;;;6.82;;
14052;SDS011;7101;51.600;7.310;2023-03-01T10:18:31;10.93;;;6.15;;
14052;SDS011;7101;51.600;7.310;2023-03-01T10:21:08;8.80;;;6.32;;
14052;SDS011;7101;51.600;7.310;2023-03-01T10:23:41;8.57;;;5.95;;
14052;SDS011;7101;51.600;7.310;2023-03-01T10:26:22;9.02;;;6.05;;
14052;SDS011;7101;51.600;7.310;2023-03-01T10:29:03;8.60;;;6.07;;
14052;SDS011;7101;51.600;7.310;2023-03-01T10:31:36;8.45;;;5.60;;
14052;SDS011;7101;51.600;7.310;2023-03-01T10:34:13;7.07;;;5.55;;
14052;SDS011;7101;51.600;7.310;2023-03-01T10:36:41;11.38;;;5.70;;
14052;SDS011;7101;51.600;7.310;2023-03-01T10:39:13;11.95;;;6.13;;
14052;SDS011;7101;51.600;7.310;2023-03-01T10:41:51;10.65;;;6.07;;
14052;SDS011;7101;51.600;7.310;2023-03-01T10:44:39;8.52;;;5.85;;
14052;SDS011;7101;51.600;7.310;2023-03-01T10:47:20;11.77;;;5.30;;
14052;SDS011;7101;51.600;7.310;2023-03-01T10:49:53;8.75;;;5.40;;
14052;SDS011;7101;51.600;7.310;2023-03-01T10:52:32;8.18;;;5.45;;
14052;SDS011;7101;51.600;7.310;2023-03-01T10:55:04;9.90;;;6.45;;
14052;SDS011;7101;51.600;7.310;2023-03-01T10:58:05;8.90;;;5.10;;
14052;SDS011;7101;51.600;7.310;2023-03-01T11:00:33;6.90;;;5.32;;
14052;SDS011;7101;51.600;7.310;2023-03-01T11:03:16;10.25;;;5.72;;
14052;SDS011;7101;51.600;7.310;2023-03-01T11:05:53;8.90;;;5.45;;
14052;SDS011;7101;51.600;7.310;2023-03-01T11:08:41;7.65;;;5.57;;
14052;SDS011;7101;51.600;7.310;2023-03-01T11:11:14;8.88;;;6.10;;
14052;SDS011;7101;51.600;7.310;2023-03-01T11:13:54;8.93;;;5.93;;
14052;SDS011;7101;51.600;7.310;2023-03-01T11:16:24;8.35;;;5.85;;
14052;SDS011;7101;51.600;7.310;2023-03-01T11:18:56;8.35;;;6.30;;
14052;SDS011;7101;51.600;7.310;2023-03-01T11:21:41;12.70;;;6.20;;
14052;SDS011;7101;51.600;7.310;2023-03-01T11:24:17;8.82;;;5.40;;
14052;SDS011;7101;51.600;7.310;2023-03-01T11:26:52;9.32;;;5.63;;
14052;SDS011;7101;51.600;7.310;2023-03-01T11:29:26;6.65;;;5.32;;
14052;SDS011;7101;51.600;7.310;2023-03-01T11:31:56;9.15;;;6.20;;
14052;SDS011;7101;51.600;7.310;2023-03-01T11:34:31;8.45;;;5.97;;
14052;SDS011;7101;51.600;7.310;2023-03-01T11:37:09;10.95;;;5.97;;
14052;SDS011;7101;51.600;7.310;2023-03-01T11:39:43;9.85;;;5.60;;
14052;SDS011;7101;51.600;7.310;2023-03-01T11:42:20;12.63;;;6.50;;
14052;SDS011;7101;51.600;7.310;2023-03-01T11:44:54;8.52;;;6.18;;
14052;SDS011;7101;51.600;7.310;2023-03-01T11:47:32;8.07;;;5.50;;
14052;SDS011;7101;51.600;7.310;2023-03-01T11:50:19;9.02;;;5.38;;
14052;SDS011;7101;51.600;7.310;2023-03-01T11:52:56;9.07;;;5.65;;
14052;SDS011;7101;51.600;7.310;2023-03-01T11:55:41;11.18;;;5.72;;
14052;SDS011;7101;51.600;7.310;2023-03-01T11:58:26;9.25;;;5.63;;
14052;SDS011;7101;51.600;7.310;2023-03-01T12:01:12;8.90;;;5.65;;
14052;SDS011;7101;51.600;7.310;2023-03-01T12:03:52;9.05;;;6.00;;
14052;SDS011;7101;51.600;7.310;2023-03-01T12:06:35;9.15;;;5.90;;
14052;SDS011;7101;51.600;7.310;2023-03-01T12:09:27;10.82;;;5.70;;
14052;SDS011;7101;51.600;7.310;2023-03-01T12:12:09;9.32;;;5.85;;
14052;SDS011;7101;51.600;7.310;2023-03-01T12:14:55;8.57;;;6.03;;
14052;SDS011;7101;51.600;7.310;2023-03-01T12:17:58;9.98;;;5.57;;
14052;SDS011;7101;51.600;7.310;2023-03-01T12:20:51;11.57;;;6.55;;
14052;SDS011;7101;51.600;7.310;2023-03-01T12:23:35;8.95;;;5.95;;
14052;SDS011;7101;51.600;7.310;2023-03-01T12:26:31;11.77;;;6.38;;
14052;SDS011;7101;51.600;7.310;2023-03-01T12:35:04;8.00;;;5.60;;
14052;SDS011;7101;51.600;7.310;2023-03-01T12:37:59;7.90;;;5.68;;
14052;SDS011;7101;51.600;7.310;2023-03-01T12:40:42;11.10;;;6.40;;
14052;SDS011;7101;51.600;7.310;2023-03-01T12:43:36;10.07;;;6.00;;
14052;SDS011;7101;51.600;7.310;2023-03-01T12:46:19;7.35;;;5.53;;
14052;SDS011;7101;51.600;7.310;2023-03-01T12:48:59;8.70;;;6.07;;
14052;SDS011;7101;51.600;7.310;2023-03-01T12:51:33;11.02;;;6.10;;
14052;SDS011;7101;51.600;7.310;2023-03-01T12:54:07;8.40;;;6.45;;
14052;SDS011;7101;51.600;7.310;2023-03-01T12:56:42;10.82;;;6.47;;
14052;SDS011;7101;51.600;7.310;2023-03-01T12:59:18;7.55;;;6.00;;
14052;SDS011;7101;51.600;7.310;2023-03-01T13:01:52;8.65;;;6.22;;
14052;SDS011;7101;51.600;7.310;2023-03-01T13:04:33;7.65;;;6.03;;
14052;SDS011;7101;51.600;7.310;2023-03-01T13:07:18;9.45;;;6.53;;
14052;SDS011;7101;51.600;7.310;2023-03-01T13:09:54;9.77;;;6.53;;
14052;SDS011;7101;51.600;7.310;2023-03-01T13:12:50;11.18;;;6.45;;
14052;SDS011;7101;51.600;7.310;2023-03-01T13:15:27;9.02;;;6.28;;
14052;SDS011;7101;51.600;7.310;2023-03-01T13:17:59;11.27;;;7.13;;
14052;SDS011;7101;51.600;7.310;2023-03-01T13:20:31;7.55;;;6.13;;
14052;SDS011;7101;51.600;7.310;2023-03-01T13:23:02;10.15;;;6.63;;
14052;SDS011;7101;51.600;7.310;2023-03-01T13:25:50;9.45;;;6.53;;
14052;SDS011;7101;51.600;7.310;2023-03-01T13:34:43;10.88;;;6.40;;
14052;SDS011;7101;51.600;7.310;2023-03-01T13:37:31;8.85;;;6.43;;
14052;SDS011;7101;51.600;7.310;2023-03-01T13:46:01;9.63;;;7.18;;
14052;SDS011;7101;51.600;7.310;2023-03-01T13:48:36;11.63;;;7.20;;
14052;SDS011;7101;51.600;7.310;2023-03-01T13:51:04;9.52;;;6.88;;
14052;SDS011;7101;51.600;7.310;2023-03-01T13:53:39;10.50;;;6.50;;
14052;SDS011;7101;51.600;7.310;2023-03-01T13:56:09;10.45;;;7.35;;
14052;SDS011;7101;51.600;7.310;2023-03-01T13:58:48;9.57;;;6.90;;
14052;SDS011;7101;51.600;7.310;2023-03-01T14:01:27;9.32;;;6.13;;
14052;SDS011;7101;51.600;7.310;2023-03-01T14:03:55;9.98;;;6.38;;
14052;SDS011;7101;51.600;7.310;2023-03-01T14:06:23;10.43;;;6.72;;
14052;SDS011;7101;51.600;7.310;2023-03-01T14:09:01;9.27;;;6.15;;
14052;SDS011;7101;51.600;7.310;2023-03-01T14:11:40;7.95;;;5.57;;
14052;SDS011;7101;51.600;7.310;2023-03-01T14:14:34;9.13;;;6.10;;
14052;SDS011;7101;51.600;7.310;2023-03-01T14:17:15;10.43;;;6.78;;
14052;SDS011;7101;51.600;7.310;2023-03-01T14:19:54;10.52;;;6.40;;
14052;SDS011;7101;51.600;7.310;2023-03-01T14:22:25;9.63;;;6.03;;
14052;SDS011;7101;51.600;7.310;2023-03-01T14:24:55;7.30;;;5.97;;
14052;SDS011;7101;51.600;7.310;2023-03-01T14:27:25;8.40;;;5.78;;
14052;SDS011;7101;51.600;7.310;2023-03-01T14:29:56;7.85;;;6.10;;
14052;SDS011;7101;51.600;7.310;2023-03-01T14:32:26;10.23;;;6.72;;
14052;SDS011;7101;51.600;7.310;2023-03-01T14:34:55;10.57;;;6.88;;
14052;SDS011;7101;51.600;7.310;2023-03-01T14:37:24;8.63;;;6.00;;
14052;SDS011;7101;51.600;7.310;2023-03-01T14:39:53;10.43;;;6.80;;
14052;SDS011;7101;51.600;7.310;2023-03-01T14:42:24;14.30;;;7.07;;
14052;SDS011;7101;51.600;7.310;2023-03-01T14:44:54;9.55;;;6.18;;
14052;SDS011;7101;51.600;7.310;2023-03-01T14:47:25;9.52;;;6.70;;
14052;SDS011;7101;51.600;7.310;2023-03-01T14:49:57;10.50;;;6.22;;
14052;SDS011;7101;51.600;7.310;2023-03-01T14:52:30;8.85;;;6.45;;
14052;SDS011;7101;51.600;7.310;2023-03-01T14:55:01;9.93;;;6.45;;
14052;SDS011;7101;51.600;7.310;2023-03-01T14:57:34;9.10;;;5.85;;
14052;SDS011;7101;51.600;7.310;2023-03-01T15:00:03;9.90;;;6.20;;
14052;SDS011;7101;51.600;7.310;2023-03-01T15:02:33;10.63;;;6.43;;
14052;SDS011;7101;51.600;7.310;2023-03-01T15:05:02;8.93;;;6.03;;
14052;SDS011;7101;51.600;7.310;2023-03-01T15:07:33;9.45;;;5.72;;
14052;SDS011;7101;51.600;7.310;2023-03-01T15:10:02;9.38;;;5.95;;
14052;SDS011;7101;51.600;7.310;2023-03-01T15:12:38;8.57;;;5.80;;
14052;SDS011;7101;51.600;7.310;2023-03-01T15:15:20;8.90;;;5.55;;
14052;SDS011;7101;51.600;7.310;2023-03-01T15:18:02;6.82;;;5.20;;
14052;SDS011;7101;51.600;7.310;2023-03-01T15:20:31;8.68;;;6.20;;
14052;SDS011;7101;51.600;7.310;2023-03-01T15:23:03;8.63;;;6.25;;
14052;SDS011;7101;51.600;7.310;2023-03-01T15:25:31;9.65;;;6.30;;
14052;SDS011;7101;51.600;7.310;2023-03-01T15:28:01;10.55;;;6.28;;
14052;SDS011;7101;51.600;7.310;2023-03-01T15:30:30;11.50;;;6.50;;
14052;SDS011;7101;51.600;7.310;2023-03-01T15:33:18;12.15;;;6.40;;
14052;SDS011;7101;51.600;7.310;2023-03-01T15:35:54;8.68;;;5.80;;
14052;SDS011;7101;51.600;7.310;2023-03-01T15:38:30;7.93;;;5.85;;
14052;SDS011;7101;51.600;7.310;2023-03-01T15:40:59;9.23;;;6.05;;
14052;SDS011;7101;51.600;7.310;2023-03-01T15:43:37;8.18;;;5.90;;
14052;SDS011;7101;51.600;7.310;2023-03-01T15:46:14;8.80;;;6.05;;